Time;durP1;ratioP1;P1;durP2;ratioP2;P2;SDS_P1;SDS_P2;PMS_P1;PMS_P2;Temp;Humidity;BMP_temperature;BMP_pressure;BME280_temperature;BME280_humidity;BME280_pressure;Samples;Min_cycle;Max_cycle;Signal;HPM_P1;HPM_P2
2022/01/04 00:00:26;;;;;;;11.57;5.95;;;15.70;59.00;;;;;;5079645;28;20119;-94
2022/01/04 00:02:51;;;;;;;8.75;4.93;;;15.90;58.70;;;;;;5070377;28;20349;-93
2022/01/04 00:05:17;;;;;;;9.15;4.82;;;15.80;58.30;;;;;;5077894;28;20475;-94
2022/01/04 00:07:43;;;;;;;10.60;4.65;;;15.80;58.60;;;;;;5059819;28;20082;-93
2022/01/04 00:10:09;;;;;;;6.82;3.83;;;15.80;58.80;;;;;;5059410;28;20021;-89
2022/01/04 00:15:20;;;;;;;8.23;3.83;;;15.90;58.10;;;;;;5077636;28;20036;-91
2022/01/04 00:17:46;;;;;;;16.25;8.30;;;16.00;58.20;;;;;;5059272;28;20383;-85
2022/01/04 00:20:12;;;;;;;13.07;5.85;;;15.90;58.10;;;;;;5059679;28;20025;-94
2022/01/04 00:22:38;;;;;;;7.28;4.28;;;15.40;58.90;;;;;;5059988;28;20455;-92
2022/01/04 00:25:05;;;;;;;8.43;3.50;;;15.40;58.90;;;;;;5072890;28;20077;-93
2022/01/04 00:27:31;;;;;;;7.13;3.58;;;15.20;59.70;;;;;;5078749;28;20048;-92
2022/01/04 00:29:56;;;;;;;8.95;4.20;;;15.20;59.40;;;;;;5078193;28;20016;-85
2022/01/04 00:32:22;;;;;;;11.63;4.40;;;15.30;59.50;;;;;;5058926;28;20024;-95
2022/01/04 00:34:48;;;;;;;7.40;3.45;;;15.50;59.10;;;;;;5058472;28;20055;-93
2022/01/04 00:37:14;;;;;;;8.18;3.95;;;15.30;59.20;;;;;;5058951;28;20427;-90
2022/01/04 00:39:39;;;;;;;10.02;4.05;;;15.40;59.00;;;;;;5058700;28;20047;-95
2022/01/04 00:42:05;;;;;;;9.02;4.95;;;15.30;59.20;;;;;;5076633;28;20038;-92
2022/01/04 00:44:31;;;;;;;10.43;5.32;;;14.70;60.70;;;;;;5078753;28;20024;-95
2022/01/04 00:46:59;;;;;;;11.93;4.22;;;14.80;60.60;;;;;;5078536;28;20020;-92
2022/01/04 00:49:24;;;;;;;9.18;4.88;;;14.80;60.80;;;;;;5078673;28;20024;-93
2022/01/04 00:51:53;;;;;;;9.18;4.32;;;14.90;60.80;;;;;;5078513;28;20031;-92
2022/01/04 00:54:21;;;;;;;9.02;4.55;;;15.00;60.40;;;;;;5061005;28;20023;-90
2022/01/04 00:56:47;;;;;;;9.98;4.35;;;15.20;59.80;;;;;;5058192;28;20089;-84
2022/01/04 00:59:14;;;;;;;8.27;4.07;;;15.10;60.00;;;;;;5058425;28;20021;-94
2022/01/04 01:01:40;;;;;;;9.02;4.22;;;15.20;60.00;;;;;;5065080;28;20061;-94
2022/01/04 01:04:07;;;;;;;9.07;3.92;;;15.20;59.50;;;;;;5078077;28;20024;-94
2022/01/04 01:06:33;;;;;;;9.70;4.40;;;15.30;59.60;;;;;;5078658;28;20016;-88
2022/01/04 01:08:59;;;;;;;10.57;3.83;;;15.20;59.30;;;;;;5078630;28;20074;-93
2022/01/04 01:11:25;;;;;;;8.25;3.72;;;15.00;60.50;;;;;;5077815;28;20366;-95
2022/01/04 01:13:51;;;;;;;10.27;4.85;;;15.30;59.90;;;;;;5078516;28;20024;-95
2022/01/04 01:16:17;;;;;;;10.15;4.72;;;15.40;59.80;;;;;;5078366;28;20028;-94
2022/01/04 01:18:43;;;;;;;9.30;4.38;;;15.60;59.20;;;;;;5078262;28;20459;-93
2022/01/04 01:21:09;;;;;;;10.80;4.53;;;15.60;59.00;;;;;;5060469;28;20020;-93
2022/01/04 01:23:36;;;;;;;7.80;4.10;;;15.80;58.60;;;;;;5058094;28;20463;-92
2022/01/04 01:26:06;;;;;;;9.65;4.30;;;15.70;59.30;;;;;;5057833;28;20028;-84
2022/01/04 01:28:33;;;;;;;7.07;4.18;;;15.60;59.00;;;;;;5057907;28;20039;-93
2022/01/04 01:30:59;;;;;;;13.65;4.63;;;15.40;59.60;;;;;;5073730;28;20425;-90
2022/01/04 01:33:27;;;;;;;9.07;5.30;;;15.60;59.00;;;;;;5078215;28;20020;-85
2022/01/04 01:35:53;;;;;;;10.77;4.30;;;15.50;59.40;;;;;;5076846;28;20047;-84
2022/01/04 01:38:23;;;;;;;6.68;4.68;;;15.40;59.70;;;;;;5077955;28;20069;-94
2022/01/04 01:40:51;;;;;;;7.90;4.63;;;15.30;60.00;;;;;;5077634;28;20051;-94
2022/01/04 01:43:17;;;;;;;8.93;4.80;;;15.20;60.20;;;;;;5060326;28;20425;-87
2022/01/04 01:45:44;;;;;;;9.52;4.50;;;15.20;60.10;;;;;;5057788;28;20027;-94
2022/01/04 01:48:10;;;;;;;10.48;4.85;;;14.60;61.80;;;;;;5057528;28;20107;-85
2022/01/04 01:50:37;;;;;;;9.05;4.57;;;14.40;61.80;;;;;;5057617;28;20025;-83
2022/01/04 01:53:03;;;;;;;9.68;4.88;;;14.10;62.80;;;;;;5068223;28;20363;-85
2022/01/04 01:55:32;;;;;;;9.35;5.05;;;14.10;62.70;;;;;;5077463;28;20036;-87
2022/01/04 01:58:23;;;;;;;8.25;4.47;;;14.20;62.20;;;;;;5077482;28;20051;-91
2022/01/04 02:00:49;;;;;;;8.02;4.55;;;14.30;61.70;;;;;;4977964;28;20029;-92
2022/01/04 02:03:14;;;;;;;6.82;4.22;;;14.30;61.50;;;;;;4976293;28;20117;-95
2022/01/04 02:05:40;;;;;;;9.00;4.38;;;14.20;61.60;;;;;;4977852;28;20085;-92
2022/01/04 02:08:07;;;;;;;6.82;3.80;;;14.00;61.80;;;;;;4993762;28;20030;-89
2022/01/04 02:10:33;;;;;;;9.10;4.30;;;14.30;61.90;;;;;;4989142;28;20011;-87
2022/01/04 02:13:02;;;;;;;9.82;4.20;;;14.50;61.30;;;;;;4974108;28;20038;-93
2022/01/04 02:15:33;;;;;;;8.02;4.07;;;14.40;61.40;;;;;;4974187;28;20094;-91
2022/01/04 02:18:01;;;;;;;7.43;3.95;;;14.10;62.20;;;;;;4974090;28;20034;-92
2022/01/04 02:20:26;;;;;;;8.38;4.10;;;13.90;62.10;;;;;;4977893;28;20101;-93
2022/01/04 02:22:54;;;;;;;10.05;4.80;;;13.40;63.30;;;;;;4993891;28;20018;-94
2022/01/04 02:25:20;;;;;;;9.32;4.50;;;13.50;64.00;;;;;;4993638;28;20433;-84
2022/01/04 02:27:45;;;;;;;8.95;4.63;;;13.60;63.80;;;;;;4993279;28;20023;-89
2022/01/04 02:30:17;;;;;;;7.47;5.03;;;13.90;63.10;;;;;;4992558;28;20446;-85
2022/01/04 02:32:44;;;;;;;8.32;4.25;;;13.70;63.40;;;;;;4974950;28;20019;-94
2022/01/04 02:35:12;;;;;;;8.63;4.05;;;13.50;64.20;;;;;;4974120;28;20133;-92
2022/01/04 02:37:38;;;;;;;8.02;4.80;;;13.30;64.40;;;;;;5001771;28;20056;-87
2022/01/04 02:40:04;;;;;;;7.82;4.25;;;13.50;64.60;;;;;;5059931;28;20047;-93
2022/01/04 02:42:30;;;;;;;10.73;4.93;;;13.80;63.40;;;;;;5094725;28;20047;-93
2022/01/04 02:44:58;;;;;;;7.93;4.13;;;14.00;63.40;;;;;;5076917;28;20036;-87
2022/01/04 02:47:24;;;;;;;7.13;3.97;;;14.30;62.20;;;;;;5094803;28;20023;-94
2022/01/04 02:49:52;;;;;;;8.10;4.32;;;14.50;61.40;;;;;;5076040;28;20020;-95
2022/01/04 02:52:18;;;;;;;7.90;4.45;;;14.80;60.60;;;;;;5062866;28;20042;-94
2022/01/04 02:54:44;;;;;;;9.60;4.60;;;15.00;60.00;;;;;;5063450;28;20451;-95
2022/01/04 02:57:10;;;;;;;8.95;5.00;;;15.10;59.90;;;;;;5074871;28;20028;-94
2022/01/04 02:59:36;;;;;;;8.93;4.70;;;15.20;59.40;;;;;;5075633;28;20024;-94
2022/01/04 03:02:03;;;;;;;11.80;5.97;;;15.40;59.10;;;;;;5095170;28;20086;-93
2022/01/04 03:04:29;;;;;;;8.82;5.35;;;15.10;60.00;;;;;;5076876;28;20016;-92
2022/01/04 03:06:54;;;;;;;10.65;5.25;;;15.00;60.30;;;;;;5077268;28;20050;-85
2022/01/04 03:09:20;;;;;;;7.50;4.97;;;14.90;60.40;;;;;;5076566;28;20032;-86
2022/01/04 03:11:46;;;;;;;9.98;4.90;;;14.90;60.50;;;;;;5074496;28;20050;-93
2022/01/04 03:14:14;;;;;;;8.80;5.00;;;15.10;60.00;;;;;;5076570;28;20115;-93
2022/01/04 03:16:39;;;;;;;8.13;4.90;;;15.10;59.40;;;;;;5076590;28;20028;-93
2022/01/04 03:19:09;;;;;;;9.80;5.90;;;14.40;60.30;;;;;;5083853;28;20024;-94
2022/01/04 03:21:37;;;;;;;9.25;4.75;;;14.10;61.20;;;;;;5056342;28;20028;-94
2022/01/04 03:24:05;;;;;;;11.25;5.38;;;13.90;62.10;;;;;;5057679;28;20027;-94
2022/01/04 03:26:31;;;;;;;9.65;5.35;;;14.30;61.50;;;;;;5076146;28;20451;-94
2022/01/04 03:28:58;;;;;;;12.98;5.93;;;14.50;61.40;;;;;;5080233;28;20082;-92
2022/01/04 03:31:30;;;;;;;10.07;5.70;;;14.80;60.80;;;;;;5098518;28;20016;-86
2022/01/04 03:33:59;;;;;;;11.05;5.35;;;15.00;60.00;;;;;;5079970;28;20031;-93
2022/01/04 03:36:27;;;;;;;10.90;6.15;;;15.10;60.20;;;;;;5065222;28;20068;-94
2022/01/04 03:38:54;;;;;;;9.90;5.30;;;15.20;60.10;;;;;;5077896;28;20367;-95
2022/01/04 03:41:22;;;;;;;12.23;6.05;;;15.30;59.50;;;;;;5078045;28;20025;-85
2022/01/04 03:43:49;;;;;;;11.30;5.40;;;15.40;59.40;;;;;;5075168;28;20024;-85
2022/01/04 03:46:16;;;;;;;12.55;6.13;;;15.10;60.00;;;;;;5078014;28;20422;-94
2022/01/04 03:48:43;;;;;;;10.68;5.88;;;15.00;60.20;;;;;;5059736;28;20028;-93
2022/01/04 03:51:09;;;;;;;11.60;5.63;;;15.10;59.80;;;;;;5059935;28;20099;-93
2022/01/04 03:53:35;;;;;;;9.10;5.70;;;15.10;59.90;;;;;;5060629;28;20020;-88
2022/01/04 03:56:01;;;;;;;11.52;6.03;;;15.20;59.20;;;;;;5059785;28;20028;-95
2022/01/04 03:58:27;;;;;;;8.07;5.32;;;15.30;58.80;;;;;;5059949;28;20023;-87
2022/01/04 04:00:53;;;;;;;7.85;5.57;;;14.90;60.00;;;;;;5077395;28;20024;-93
2022/01/04 04:03:19;;;;;;;9.43;5.80;;;14.80;59.70;;;;;;5071600;28;20038;-95
2022/01/04 04:05:45;;;;;;;11.38;5.85;;;14.70;59.90;;;;;;5079592;28;20028;-93
2022/01/04 04:08:11;;;;;;;13.07;5.72;;;14.70;60.30;;;;;;5079619;28;20034;-92
2022/01/04 04:10:36;;;;;;;8.32;5.55;;;14.50;61.00;;;;;;5079607;28;20450;-86
2022/01/04 04:13:03;;;;;;;20.70;6.32;;;14.50;59.60;;;;;;5061187;28;20055;-92
2022/01/04 04:15:31;;;;;;;13.68;6.68;;;14.50;60.00;;;;;;5059341;28;20081;-90
2022/01/04 04:17:56;;;;;;;11.70;6.30;;;14.60;59.30;;;;;;5077581;28;20023;-87
2022/01/04 04:20:22;;;;;;;12.20;6.53;;;14.20;59.10;;;;;;5085127;28;20095;-95
2022/01/04 04:22:48;;;;;;;12.77;6.00;;;13.90;60.00;;;;;;5097163;28;20455;-87
2022/01/04 04:25:14;;;;;;;10.82;5.93;;;14.00;59.70;;;;;;5079670;28;20031;-96
2022/01/04 04:27:40;;;;;;;12.35;6.82;;;14.00;59.70;;;;;;5067858;28;20501;-94
2022/01/04 04:30:07;;;;;;;12.20;6.65;;;14.20;59.40;;;;;;5059496;28;20062;-88
2022/01/04 04:32:33;;;;;;;11.30;6.53;;;14.00;59.50;;;;;;5059536;28;20021;-93
2022/01/04 04:34:58;;;;;;;13.60;7.35;;;13.90;59.40;;;;;;5076342;28;20494;-91
2022/01/04 04:37:24;;;;;;;11.98;7.32;;;14.10;59.50;;;;;;5066419;28;20370;-91
2022/01/04 04:39:50;;;;;;;12.88;6.95;;;14.10;59.40;;;;;;5096979;28;20523;-94
2022/01/04 04:42:16;;;;;;;15.70;9.25;;;14.10;59.60;;;;;;5079147;28;20030;-88
2022/01/04 04:44:43;;;;;;;14.10;9.05;;;13.70;61.30;;;;;;5097046;28;20141;-94
2022/01/04 04:47:09;;;;;;;13.50;8.27;;;13.90;60.30;;;;;;5069747;28;20107;-84
2022/01/04 04:49:35;;;;;;;19.55;10.55;;;13.90;59.40;;;;;;5076182;28;20107;-89
2022/01/04 04:52:01;;;;;;;19.52;11.32;;;13.80;59.90;;;;;;5059697;28;20471;-94
2022/01/04 04:54:27;;;;;;;18.00;9.90;;;13.20;62.70;;;;;;5059055;28;20111;-95
2022/01/04 04:56:53;;;;;;;15.60;10.18;;;13.20;62.40;;;;;;5064528;28;20035;-94
2022/01/04 04:59:18;;;;;;;13.90;8.90;;;13.30;62.30;;;;;;5078678;28;20020;-95
2022/01/04 05:01:44;;;;;;;11.77;7.50;;;13.40;59.90;;;;;;5076072;28;20024;-93
2022/01/04 05:04:10;;;;;;;14.65;8.32;;;12.90;59.70;;;;;;5060211;28;20016;-96
2022/01/04 05:06:35;;;;;;;16.35;10.23;;;12.80;60.40;;;;;;5091011;28;20032;-92
2022/01/04 05:09:02;;;;;;;18.25;10.20;;;13.00;60.40;;;;;;5096699;28;20024;-94
2022/01/04 05:11:27;;;;;;;17.65;10.93;;;13.30;60.40;;;;;;5074748;28;20023;-90
2022/01/04 05:13:53;;;;;;;17.33;10.82;;;13.40;59.90;;;;;;5066474;28;20024;-86
2022/01/04 05:16:19;;;;;;;18.70;11.27;;;13.10;60.50;;;;;;5057394;28;20033;-85
2022/01/04 05:18:44;;;;;;;21.33;11.88;;;12.30;63.20;;;;;;5057890;28;20393;-89
2022/01/04 05:21:10;;;;;;;17.98;11.45;;;12.10;64.30;;;;;;5058066;28;20020;-91
2022/01/04 05:23:36;;;;;;;19.08;10.63;;;12.50;62.60;;;;;;5072925;28;20027;-92
2022/01/04 05:26:03;;;;;;;19.40;12.65;;;12.70;62.10;;;;;;5056887;28;20017;-88
2022/01/04 05:28:28;;;;;;;19.45;11.75;;;12.70;62.50;;;;;;5067741;28;20016;-89
2022/01/04 05:30:54;;;;;;;19.98;12.02;;;13.00;61.10;;;;;;5063631;28;20407;-94
2022/01/04 05:33:20;;;;;;;18.48;12.20;;;12.90;60.20;;;;;;5072591;28;20097;-93
2022/01/04 05:35:47;;;;;;;21.55;12.45;;;13.00;60.60;;;;;;5094096;28;20056;-90
2022/01/04 05:38:13;;;;;;;25.10;14.93;;;13.00;60.40;;;;;;5072730;28;20016;-93
2022/01/04 05:40:39;;;;;;;20.27;13.68;;;12.50;62.60;;;;;;5077036;28;20150;-92
2022/01/04 05:43:04;;;;;;;21.92;12.45;;;12.70;61.70;;;;;;5090644;28;20008;-82
2022/01/04 05:45:36;;;;;;;17.98;11.60;;;12.80;60.70;;;;;;5068611;28;20016;-92
2022/01/04 05:48:03;;;;;;;19.02;11.65;;;12.60;59.50;;;;;;5074709;28;20021;-91
2022/01/04 05:50:30;;;;;;;22.92;12.75;;;12.50;59.40;;;;;;5057840;28;20016;-95
2022/01/04 05:52:58;;;;;;;20.08;12.23;;;12.30;59.90;;;;;;5064822;28;20061;-90
2022/01/04 05:55:24;;;;;;;20.02;12.23;;;12.60;59.80;;;;;;5073873;28;20025;-90
2022/01/04 05:57:51;;;;;;;20.80;12.38;;;12.80;59.60;;;;;;5077496;28;20126;-92
2022/01/04 06:00:17;;;;;;;21.10;11.63;;;12.80;59.10;;;;;;5077320;28;20062;-93
2022/01/04 06:02:46;;;;;;;21.90;12.45;;;12.70;58.90;;;;;;5077845;28;20058;-92
2022/01/04 06:05:11;;;;;;;20.40;12.85;;;12.20;59.70;;;;;;5077708;28;20024;-89
2022/01/04 06:07:37;;;;;;;29.65;19.30;;;12.20;60.50;;;;;;5057526;28;20028;-96
2022/01/04 06:10:08;;;;;;;24.95;15.75;;;12.20;61.40;;;;;;5058140;28;20052;-93
2022/01/04 06:15:20;;;;;;;31.95;21.55;;;12.20;61.60;;;;;;4993717;28;20041;-93
2022/01/04 06:17:49;;;;;;;40.78;23.60;;;11.90;63.60;;;;;;4979642;28;20038;-84
2022/01/04 06:20:21;;;;;;;28.48;17.17;;;11.50;65.20;;;;;;4985655;28;20021;-92
2022/01/04 06:22:51;;;;;;;20.23;13.38;;;11.70;62.70;;;;;;4991027;28;20118;-94
2022/01/04 06:25:19;;;;;;;19.58;12.45;;;11.60;60.30;;;;;;4984786;28;20119;-94
2022/01/04 06:27:48;;;;;;;23.98;14.52;;;11.60;60.60;;;;;;5013198;28;20433;-92
2022/01/04 06:30:15;;;;;;;26.23;15.75;;;11.60;60.60;;;;;;4997757;28;20028;-94
2022/01/04 06:32:45;;;;;;;19.85;12.25;;;11.60;60.20;;;;;;5005639;28;20029;-92
2022/01/04 06:35:14;;;;;;;22.63;14.38;;;11.20;60.70;;;;;;4994155;28;20081;-94
2022/01/04 06:37:41;;;;;;;27.40;14.90;;;11.30;60.50;;;;;;4977410;28;20162;-94
2022/01/04 06:40:08;;;;;;;29.38;17.85;;;11.10;61.30;;;;;;4992444;28;20030;-84
2022/01/04 06:42:36;;;;;;;20.65;13.43;;;11.40;61.70;;;;;;5005813;28;20022;-90
2022/01/04 06:45:03;;;;;;;24.77;14.15;;;11.10;60.80;;;;;;4998200;28;20542;-92
2022/01/04 06:47:29;;;;;;;35.42;20.17;;;11.00;61.90;;;;;;4995757;28;20033;-92
2022/01/04 06:49:55;;;;;;;33.92;19.65;;;11.40;62.40;;;;;;4995763;28;20451;-92
2022/01/04 06:52:20;;;;;;;46.50;26.15;;;11.90;61.50;;;;;;5030928;28;20036;-92
2022/01/04 06:54:49;;;;;;;58.75;32.17;;;11.90;62.40;;;;;;5069015;28;20020;-85
2022/01/04 06:57:15;;;;;;;58.70;31.83;;;11.90;62.90;;;;;;5075934;28;20036;-89
2022/01/04 06:59:44;;;;;;;65.32;33.80;;;11.90;63.20;;;;;;5078941;28;20106;-87
2022/01/04 07:02:10;;;;;;;53.83;30.60;;;12.00;62.70;;;;;;5060024;28;20027;-93
2022/01/04 07:04:36;;;;;;;58.88;32.50;;;12.20;62.60;;;;;;5059711;28;20020;-93
2022/01/04 07:07:02;;;;;;;53.17;31.08;;;11.00;66.00;;;;;;5090397;28;20031;-92
2022/01/04 07:09:30;;;;;;;45.20;26.92;;;11.10;66.70;;;;;;5066443;28;20013;-87
2022/01/04 07:11:57;;;;;;;43.08;25.98;;;11.30;63.70;;;;;;5061731;28;20085;-83
2022/01/04 07:14:26;;;;;;;46.85;27.50;;;11.10;64.10;;;;;;5059909;28;20021;-91
2022/01/04 07:16:52;;;;;;;73.65;40.35;;;11.40;64.20;;;;;;5077897;28;20120;-92
2022/01/04 07:19:20;;;;;;;56.40;33.88;;;11.40;65.40;;;;;;5077771;28;20095;-92
2022/01/04 07:21:45;;;;;;;56.83;34.38;;;11.70;64.90;;;;;;5060306;28;20028;-91
2022/01/04 07:24:14;;;;;;;58.67;34.28;;;11.70;66.00;;;;;;5060462;28;20087;-92
2022/01/04 07:26:40;;;;;;;57.80;31.65;;;12.10;64.90;;;;;;5060166;28;20021;-92
2022/01/04 07:29:05;;;;;;;47.03;28.50;;;12.30;61.30;;;;;;5060207;28;20039;-93
2022/01/04 07:31:32;;;;;;;61.38;36.67;;;12.60;61.00;;;;;;5060221;28;20482;-92
2022/01/04 07:33:58;;;;;;;50.42;30.33;;;12.00;63.60;;;;;;5059623;28;20040;-93
2022/01/04 07:36:24;;;;;;;54.25;32.30;;;12.00;64.30;;;;;;5059924;28;20071;-93
2022/01/04 07:38:49;;;;;;;48.45;28.73;;;12.00;64.30;;;;;;5060168;28;20037;-89
2022/01/04 07:41:15;;;;;;;48.13;28.58;;;12.40;63.80;;;;;;5059873;28;20051;-85
2022/01/04 07:43:41;;;;;;;43.70;25.98;;;12.90;62.20;;;;;;5059595;28;20368;-91
2022/01/04 07:46:07;;;;;;;37.47;24.30;;;13.30;60.90;;;;;;5059514;28;20077;-90
2022/01/04 07:48:32;;;;;;;50.67;30.95;;;13.20;61.10;;;;;;5059231;28;20012;-92
2022/01/04 07:50:59;;;;;;;42.05;26.50;;;13.20;62.40;;;;;;5059253;28;20086;-90
2022/01/04 07:53:25;;;;;;;43.53;27.48;;;13.40;61.40;;;;;;5059370;28;20540;-91
2022/01/04 07:55:51;;;;;;;47.08;28.30;;;13.10;62.10;;;;;;5058926;28;20114;-86
2022/01/04 07:58:17;;;;;;;49.20;28.90;;;13.20;61.60;;;;;;5058650;28;20020;-91
2022/01/04 08:00:43;;;;;;;38.55;24.90;;;13.60;60.80;;;;;;5058904;28;20043;-91
2022/01/04 08:03:10;;;;;;;40.88;23.40;;;13.90;60.30;;;;;;5058707;28;20020;-89
2022/01/04 08:05:36;;;;;;;117.20;33.17;;;14.30;59.30;;;;;;5058917;28;20029;-89
2022/01/04 08:08:02;;;;;;;53.45;29.42;;;13.50;60.00;;;;;;5058804;28;20387;-87
2022/01/04 08:10:28;;;;;;;50.33;30.98;;;13.20;61.20;;;;;;5057935;28;20073;-90
2022/01/04 08:12:57;;;;;;;42.80;27.73;;;13.70;60.80;;;;;;5058657;28;20021;-90
2022/01/04 08:15:23;;;;;;;42.20;27.10;;;13.60;61.40;;;;;;5058344;28;20085;-91
2022/01/04 08:17:49;;;;;;;46.85;29.30;;;13.50;61.70;;;;;;5059191;28;20016;-92
2022/01/04 08:20:17;;;;;;;49.05;29.95;;;13.60;62.10;;;;;;5059014;28;20020;-92
2022/01/04 08:22:43;;;;;;;45.42;28.35;;;13.90;61.30;;;;;;5058480;28;20051;-91
2022/01/04 08:25:12;;;;;;;44.05;28.45;;;14.20;60.30;;;;;;5058713;28;20028;-91
2022/01/04 08:27:39;;;;;;;38.05;25.17;;;14.50;59.60;;;;;;5058210;28;20467;-88
2022/01/04 08:30:07;;;;;;;37.88;23.73;;;14.70;59.10;;;;;;5059101;28;20481;-88
2022/01/04 08:32:33;;;;;;;32.33;19.77;;;14.80;59.20;;;;;;5058961;28;20460;-92
2022/01/04 08:34:59;;;;;;;32.10;20.60;;;14.70;59.60;;;;;;5059219;28;20483;-91
2022/01/04 08:37:26;;;;;;;32.95;20.52;;;14.60;60.50;;;;;;5058882;28;20458;-92
2022/01/04 08:39:52;;;;;;;29.23;19.88;;;14.60;60.00;;;;;;5059114;28;20463;-91
2022/01/04 08:42:22;;;;;;;31.65;20.17;;;14.50;60.50;;;;;;5059003;28;20029;-94
2022/01/04 08:44:50;;;;;;;28.75;18.73;;;14.60;60.10;;;;;;5058658;28;20024;-92
2022/01/04 08:47:16;;;;;;;30.55;19.98;;;13.90;62.00;;;;;;5058436;28;20024;-92
2022/01/04 08:49:42;;;;;;;32.40;19.92;;;14.10;61.90;;;;;;5057236;28;20021;-91
2022/01/04 08:52:11;;;;;;;29.48;20.33;;;14.30;61.40;;;;;;5055917;28;20371;-90
2022/01/04 08:54:38;;;;;;;33.05;22.85;;;14.80;60.40;;;;;;5054397;28;20031;-87
2022/01/04 08:57:04;;;;;;;32.13;21.80;;;15.30;59.30;;;;;;5055123;28;20036;-90
2022/01/04 08:59:32;;;;;;;31.38;20.98;;;15.80;58.00;;;;;;5054967;28;20529;-86
2022/01/04 09:01:58;;;;;;;34.45;22.95;;;16.00;57.80;;;;;;5056047;28;20024;-92
2022/01/04 09:04:24;;;;;;;33.13;22.33;;;15.80;58.40;;;;;;5057451;28;20016;-86
2022/01/04 09:06:50;;;;;;;28.45;19.40;;;16.00;58.00;;;;;;5057810;28;20020;-91
2022/01/04 09:09:16;;;;;;;33.80;22.25;;;16.10;58.20;;;;;;5057666;28;20032;-90
2022/01/04 09:11:44;;;;;;;32.95;22.40;;;16.10;58.10;;;;;;5057921;28;20032;-91
2022/01/04 09:19:25;;;;;;;31.83;20.95;;;16.30;57.30;;;;;;5075800;28;20028;-90
2022/01/04 09:21:51;;;;;;;36.28;23.25;;;16.50;57.40;;;;;;5056512;28;20240;-93
2022/01/04 09:24:17;;;;;;;37.17;22.63;;;17.20;56.80;;;;;;5057521;28;20060;-86
2022/01/04 09:26:43;;;;;;;33.25;22.33;;;18.80;55.00;;;;;;5057515;28;20051;-91
2022/01/04 09:29:11;;;;;;;30.05;19.45;;;20.00;51.90;;;;;;5057582;28;20060;-90
2022/01/04 09:31:37;;;;;;;30.63;21.05;;;20.90;50.90;;;;;;5057501;28;20020;-91
2022/01/04 09:34:03;;;;;;;31.35;20.90;;;21.40;49.40;;;;;;5057198;28;20036;-92
2022/01/04 09:36:33;;;;;;;28.95;20.65;;;21.60;49.70;;;;;;5057448;28;20040;-94
2022/01/04 09:38:59;;;;;;;33.50;23.25;;;22.60;48.20;;;;;;5057840;28;20111;-93
2022/01/04 09:41:25;;;;;;;33.50;24.58;;;21.70;48.70;;;;;;5057720;28;20048;-92
2022/01/04 09:43:52;;;;;;;28.20;21.08;;;21.00;50.00;;;;;;5057715;28;20108;-93
2022/01/04 09:46:17;;;;;;;31.52;23.17;;;20.50;50.50;;;;;;5057274;28;20021;-96
2022/01/04 09:48:43;;;;;;;31.23;21.80;;;20.10;51.10;;;;;;5057772;28;20442;-95
2022/01/04 09:51:11;;;;;;;29.85;20.75;;;19.80;51.30;;;;;;5057559;28;20020;-96
2022/01/04 09:53:37;;;;;;;28.27;19.00;;;19.30;52.40;;;;;;5057741;28;20062;-85
2022/01/04 09:56:03;;;;;;;28.95;19.65;;;18.80;53.00;;;;;;5057972;28;20025;-96
2022/01/04 09:58:29;;;;;;;27.83;19.00;;;17.60;55.50;;;;;;5057457;28;20059;-96
2022/01/04 10:00:55;;;;;;;26.70;18.67;;;16.80;56.60;;;;;;5057879;28;20028;-92
2022/01/04 10:03:29;;;;;;;28.25;20.05;;;16.40;58.00;;;;;;5057709;28;20028;-94
2022/01/04 10:06:16;;;;;;;28.02;19.58;;;16.60;57.80;;;;;;5057662;28;20028;-96
2022/01/04 10:08:57;;;;;;;31.42;20.85;;;17.10;57.40;;;;;;5057217;28;20025;-92
2022/01/04 10:11:34;;;;;;;25.98;19.20;;;17.50;56.60;;;;;;5057681;28;20017;-95
2022/01/04 10:14:21;;;;;;;28.77;18.98;;;17.50;56.30;;;;;;5057312;28;20359;-92
2022/01/04 10:16:56;;;;;;;30.85;20.98;;;17.50;56.50;;;;;;5058006;28;20082;-93
2022/01/04 10:19:28;;;;;;;26.33;18.50;;;17.80;56.10;;;;;;5057687;28;20024;-90
2022/01/04 10:22:16;;;;;;;26.45;18.02;;;17.70;55.80;;;;;;5058043;28;20029;-96
2022/01/04 10:25:03;;;;;;;28.65;19.00;;;17.60;56.00;;;;;;5057200;28;20017;-89
2022/01/04 10:27:41;;;;;;;26.33;18.10;;;17.60;56.40;;;;;;5043771;28;20074;-95
2022/01/04 10:30:22;;;;;;;28.58;19.08;;;17.00;57.50;;;;;;5056893;28;20095;-95
2022/01/04 10:33:01;;;;;;;31.88;19.10;;;17.20;57.60;;;;;;5056591;28;20107;-94
2022/01/04 10:35:35;;;;;;;24.10;16.42;;;17.40;57.20;;;;;;5056020;28;20571;-91
2022/01/04 10:38:35;;;;;;;24.20;17.40;;;17.60;56.50;;;;;;5056895;28;20043;-95
2022/01/04 10:41:07;;;;;;;25.27;16.80;;;17.50;56.60;;;;;;5057044;28;20020;-96
2022/01/04 10:43:43;;;;;;;27.35;17.50;;;17.60;56.20;;;;;;5057290;28;20448;-91
2022/01/04 10:46:10;;;;;;;28.58;17.27;;;17.70;56.50;;;;;;5057204;28;20028;-94
2022/01/04 10:48:41;;;;;;;24.98;16.65;;;17.90;56.10;;;;;;5057167;28;20021;-93
2022/01/04 10:51:13;;;;;;;25.23;16.70;;;17.10;56.90;;;;;;5056722;28;20023;-87
2022/01/04 10:53:42;;;;;;;25.92;17.48;;;17.10;58.10;;;;;;5056769;28;20017;-86
2022/01/04 10:56:10;;;;;;;25.73;17.35;;;17.40;57.20;;;;;;5056915;28;20146;-93
2022/01/04 10:58:38;;;;;;;33.05;22.08;;;17.70;56.90;;;;;;5056254;28;20021;-88
2022/01/04 11:01:16;;;;;;;30.27;20.02;;;17.40;57.50;;;;;;5056945;28;20074;-93
2022/01/04 11:03:44;;;;;;;24.70;17.60;;;17.70;57.30;;;;;;5056280;28;20016;-95
2022/01/04 11:06:22;;;;;;;28.27;16.55;;;17.60;57.30;;;;;;5056571;28;20028;-93
2022/01/04 11:08:48;;;;;;;21.38;14.20;;;17.30;58.00;;;;;;5056550;28;20111;-95
2022/01/04 11:11:14;;;;;;;22.30;15.05;;;17.30;57.60;;;;;;5056168;28;20108;-95
2022/01/04 11:13:40;;;;;;;19.98;14.35;;;17.10;58.40;;;;;;5056632;28;20062;-96
2022/01/04 11:16:07;;;;;;;21.42;14.52;;;17.40;57.90;;;;;;5056359;28;20041;-92
2022/01/04 11:18:34;;;;;;;19.42;13.32;;;17.90;57.10;;;;;;5056553;28;20074;-93
2022/01/04 11:21:00;;;;;;;19.85;13.38;;;17.70;56.70;;;;;;5056240;28;20020;-94
2022/01/04 11:23:32;;;;;;;20.23;13.68;;;17.80;57.20;;;;;;5056273;28;20044;-89
2022/01/04 11:26:00;;;;;;;21.27;13.65;;;18.00;56.60;;;;;;5056307;28;20024;-94
2022/01/04 11:28:26;;;;;;;18.50;13.05;;;18.00;56.70;;;;;;5057043;28;20684;-89
2022/01/04 11:31:14;;;;;;;23.00;13.50;;;18.20;56.10;;;;;;5056536;28;20021;-88
2022/01/04 11:33:49;;;;;;;20.02;14.23;;;18.10;55.90;;;;;;5056321;28;20025;-91
2022/01/04 11:36:17;;;;;;;22.85;14.88;;;18.30;55.70;;;;;;5053352;28;20045;-86
2022/01/04 11:38:43;;;;;;;24.33;14.20;;;18.30;55.80;;;;;;5053053;28;20021;-88
2022/01/04 11:41:40;;;;;;;20.48;13.85;;;18.40;55.40;;;;;;5053573;28;20017;-96
2022/01/04 11:44:22;;;;;;;20.20;13.57;;;18.50;55.50;;;;;;5053748;28;20482;-94
2022/01/04 11:47:10;;;;;;;21.38;14.07;;;18.60;55.60;;;;;;5056908;28;20036;-88
2022/01/04 11:49:38;;;;;;;17.73;12.82;;;18.60;55.20;;;;;;5056481;28;20055;-93
2022/01/04 11:52:08;;;;;;;19.65;13.60;;;18.50;55.60;;;;;;5056629;28;20044;-90
2022/01/04 11:54:35;;;;;;;19.77;13.77;;;18.50;55.80;;;;;;5056841;28;20027;-88
2022/01/04 11:57:08;;;;;;;19.17;12.65;;;18.60;55.70;;;;;;5057505;28;20472;-96
2022/01/04 11:59:47;;;;;;;19.70;13.02;;;18.40;56.10;;;;;;5056759;28;20017;-90
2022/01/04 12:02:36;;;;;;;19.55;13.35;;;18.50;56.30;;;;;;5056432;28;20036;-94
2022/01/04 12:05:13;;;;;;;22.65;14.73;;;18.70;55.80;;;;;;5056590;28;20032;-85
2022/01/04 12:07:42;;;;;;;20.60;14.07;;;18.70;55.60;;;;;;5056144;28;20489;-90
2022/01/04 12:10:20;;;;;;;23.87;14.33;;;18.40;56.10;;;;;;5056984;28;20025;-89
2022/01/04 12:13:14;;;;;;;21.27;14.00;;;18.50;56.10;;;;;;5055994;28;20783;-94
2022/01/04 12:15:47;;;;;;;21.15;14.15;;;18.60;56.00;;;;;;5055902;28;20117;-95
2022/01/04 12:18:33;;;;;;;21.27;13.48;;;17.90;57.10;;;;;;5056312;28;20027;-93
2022/01/04 12:21:01;;;;;;;20.42;13.75;;;17.40;57.90;;;;;;5055859;28;20013;-90
2022/01/04 12:23:27;;;;;;;18.55;13.13;;;17.50;58.10;;;;;;5055959;28;20047;-95
2022/01/04 12:28:41;;;;;;;18.45;12.68;;;16.90;58.10;;;;;;5057494;28;20112;-94
2022/01/04 12:31:13;;;;;;;19.95;12.85;;;17.10;59.10;;;;;;5055771;28;20021;-86
2022/01/04 12:33:51;;;;;;;16.98;12.00;;;17.50;58.50;;;;;;5056170;28;20074;-93
2022/01/04 12:36:37;;;;;;;17.80;12.55;;;17.90;57.20;;;;;;5054871;28;20099;-90
2022/01/04 12:39:14;;;;;;;20.77;12.88;;;18.00;56.50;;;;;;5055621;28;20021;-91
2022/01/04 12:41:42;;;;;;;17.65;12.50;;;18.30;56.60;;;;;;5055274;28;20013;-88
2022/01/04 12:44:09;;;;;;;16.75;11.57;;;18.50;56.30;;;;;;5055283;28;20025;-85
2022/01/04 12:46:43;;;;;;;17.23;11.75;;;18.30;56.20;;;;;;5055386;28;20024;-95
2022/01/04 12:49:09;;;;;;;16.20;10.82;;;17.90;57.20;;;;;;5054820;28;20155;-94
2022/01/04 12:52:04;;;;;;;16.30;10.70;;;17.80;57.60;;;;;;5055145;28;20742;-85